createdAt,value
2023-08-17T00:01:43.373Z,2.50
2023-08-17T00:04:10.576Z,2.50
2023-08-17T00:06:37.686Z,2.67
2023-08-17T00:09:05.114Z,2.40
2023-08-17T00:11:32.418Z,2.53
2023-08-17T00:13:59.410Z,2.20
2023-08-17T00:16:26.836Z,1.83
2023-08-17T00:18:53.869Z,1.70
2023-08-17T00:21:20.974Z,2.10
2023-08-17T00:23:48.173Z,2.22
2023-08-17T00:26:15.561Z,1.77
2023-08-17T00:28:42.494Z,2.03
2023-08-17T00:31:09.342Z,2.05
2023-08-17T00:33:36.169Z,1.75
2023-08-17T00:36:03.154Z,1.88
2023-08-17T00:38:29.996Z,2.00
2023-08-17T00:40:57.191Z,1.65
2023-08-17T00:43:24.604Z,1.67
2023-08-17T00:45:51.748Z,1.50
2023-08-17T00:48:19.009Z,1.50
2023-08-17T00:50:50.262Z,1.63
2023-08-17T00:53:18.019Z,1.80
2023-08-17T00:55:45.633Z,1.50
2023-08-17T00:58:13.113Z,1.30
2023-08-17T01:00:40.164Z,1.10
2023-08-17T01:03:07.199Z,1.40
2023-08-17T01:05:34.473Z,1.50
2023-08-17T01:08:01.348Z,1.60
2023-08-17T01:10:54.637Z,1.45
2023-08-17T01:13:40.052Z,1.10
2023-08-17T01:16:10.321Z,1.35
2023-08-17T01:18:38.700Z,1.00
2023-08-17T01:21:09.530Z,1.35
2023-08-17T01:23:36.592Z,1.13
2023-08-17T01:26:03.807Z,1.15
2023-08-17T01:28:30.916Z,1.30
2023-08-17T01:31:11.174Z,1.55
2023-08-17T01:33:53.685Z,1.10
2023-08-17T01:36:32.084Z,1.63
2023-08-17T01:39:01.425Z,1.60
2023-08-17T01:41:29.570Z,1.70
2023-08-17T01:43:57.956Z,1.33
2023-08-17T01:46:31.407Z,1.30
2023-08-17T01:48:58.358Z,1.25
2023-08-17T01:51:26.379Z,1.30
2023-08-17T01:53:53.553Z,1.10
2023-08-17T01:56:20.469Z,1.20
2023-08-17T01:58:47.350Z,1.23
2023-08-17T02:01:14.495Z,1.40
2023-08-17T02:03:41.462Z,2.20
2023-08-17T02:06:08.331Z,1.50
2023-08-17T02:08:36.605Z,1.65
2023-08-17T02:11:03.682Z,2.28
2023-08-17T02:13:30.733Z,1.33
2023-08-17T02:15:57.592Z,1.38
2023-08-17T02:18:24.510Z,1.45
2023-08-17T02:20:51.557Z,1.50
2023-08-17T02:23:18.486Z,1.13
2023-08-17T02:25:45.381Z,1.27
2023-08-17T02:28:12.559Z,1.33
2023-08-17T02:30:39.419Z,1.52
2023-08-17T02:33:06.690Z,1.27
2023-08-17T02:35:34.042Z,1.50
2023-08-17T02:38:00.944Z,1.20
2023-08-17T02:40:27.821Z,1.27
2023-08-17T02:42:54.672Z,2.17
2023-08-17T02:45:21.518Z,1.80
2023-08-17T02:47:49.039Z,2.78
2023-08-17T02:50:15.908Z,1.70
2023-08-17T02:52:46.847Z,1.70
2023-08-17T02:55:13.763Z,1.60
2023-08-17T02:57:40.645Z,1.80
2023-08-17T03:00:08.267Z,1.58
2023-08-17T03:02:35.302Z,1.80
2023-08-17T03:05:02.589Z,1.80
2023-08-17T03:07:29.481Z,2.28
2023-08-17T03:09:56.410Z,2.20
2023-08-17T03:12:23.336Z,4.07
2023-08-17T03:14:50.188Z,3.70
2023-08-17T03:17:17.060Z,3.25
2023-08-17T03:19:44.006Z,3.38
2023-08-17T03:22:10.871Z,5.18
2023-08-17T03:24:37.869Z,5.30
2023-08-17T03:27:04.778Z,4.80
2023-08-17T03:29:31.627Z,4.65
2023-08-17T03:31:58.632Z,4.78
2023-08-17T03:34:25.635Z,4.00
2023-08-17T03:36:52.467Z,4.30
2023-08-17T03:39:19.306Z,5.10
2023-08-17T03:41:46.173Z,4.18
2023-08-17T03:44:14.978Z,5.22
2023-08-17T03:46:42.243Z,5.53
2023-08-17T03:49:09.392Z,5.90
2023-08-17T03:51:36.288Z,6.78
2023-08-17T03:54:03.523Z,6.00
2023-08-17T03:56:30.360Z,7.45
2023-08-17T03:58:57.190Z,7.45
2023-08-17T04:01:24.138Z,8.57
2023-08-17T04:03:51.397Z,9.57
2023-08-17T04:06:18.500Z,9.65
2023-08-17T04:08:45.398Z,10.35
2023-08-17T04:11:12.231Z,8.52
2023-08-17T04:13:39.216Z,10.23
2023-08-17T04:16:06.177Z,12.63
2023-08-17T04:18:33.104Z,11.85
2023-08-17T04:21:00.100Z,13.23
2023-08-17T04:23:27.003Z,10.82
2023-08-17T04:25:55.511Z,10.68
2023-08-17T04:28:22.401Z,10.93
2023-08-17T04:30:49.343Z,11.27
2023-08-17T04:33:16.144Z,10.30
2023-08-17T04:35:42.986Z,9.65
2023-08-17T04:38:10.178Z,9.88
2023-08-17T04:40:37.151Z,9.77
2023-08-17T04:43:04.215Z,10.23
2023-08-17T04:45:31.220Z,9.18
2023-08-17T04:47:58.130Z,9.20
2023-08-17T04:50:25.169Z,10.23
2023-08-17T04:52:52.235Z,9.30
2023-08-17T04:55:19.148Z,9.02
2023-08-17T04:57:46.003Z,9.90
2023-08-17T05:00:14.466Z,9.48
2023-08-17T05:02:41.731Z,8.88
2023-08-17T05:05:12.293Z,9.88
2023-08-17T05:07:39.174Z,7.25
2023-08-17T05:10:06.474Z,7.25
2023-08-17T05:12:33.421Z,6.57
2023-08-17T05:15:00.358Z,5.60
2023-08-17T05:17:27.643Z,5.60
2023-08-17T05:19:54.953Z,5.93
2023-08-17T05:22:21.873Z,5.93
2023-08-17T05:24:48.952Z,7.53
2023-08-17T05:27:15.869Z,7.80
2023-08-17T05:29:42.739Z,8.27
2023-08-17T05:32:09.577Z,7.18
2023-08-17T05:34:37.686Z,8.25
2023-08-17T05:37:04.671Z,7.57
2023-08-17T05:39:32.446Z,7.22
2023-08-17T05:42:00.364Z,8.40
2023-08-17T05:44:27.293Z,7.25
2023-08-17T05:46:54.203Z,8.65
2023-08-17T05:49:21.107Z,9.57
2023-08-17T05:51:48.036Z,8.88
2023-08-17T05:54:15.154Z,8.77
2023-08-17T05:56:47.587Z,8.98
2023-08-17T05:59:15.181Z,7.50
2023-08-17T06:01:42.152Z,8.30
2023-08-17T06:04:09.459Z,9.27
2023-08-17T06:06:36.331Z,9.90
2023-08-17T06:09:03.290Z,10.88
2023-08-17T06:11:30.314Z,9.68
2023-08-17T06:13:57.508Z,9.77
2023-08-17T06:16:24.522Z,10.45
2023-08-17T06:18:51.938Z,9.60
2023-08-17T06:21:18.917Z,10.52
2023-08-17T06:23:45.847Z,9.65
2023-08-17T06:26:13.096Z,9.43
2023-08-17T06:28:40.071Z,10.05
2023-08-17T06:31:07.975Z,10.27
2023-08-17T06:33:35.420Z,8.32
2023-08-17T06:36:03.251Z,7.32
2023-08-17T06:38:30.138Z,7.15
2023-08-17T06:40:57.309Z,8.60
2023-08-17T06:43:24.143Z,8.20
2023-08-17T06:45:51.004Z,8.05
2023-08-17T06:48:17.999Z,8.73
2023-08-17T06:50:44.959Z,8.57
2023-08-17T06:53:11.836Z,9.75
2023-08-17T06:55:38.951Z,8.48
2023-08-17T06:58:05.825Z,9.00
2023-08-17T07:00:32.856Z,8.82
2023-08-17T07:03:01.341Z,6.80
2023-08-17T07:05:28.883Z,6.65
2023-08-17T07:07:56.601Z,7.70
2023-08-17T07:10:23.524Z,5.90
2023-08-17T07:12:50.747Z,5.18
2023-08-17T07:15:17.790Z,6.30
2023-08-17T07:17:44.828Z,5.10
2023-08-17T07:22:42.949Z,5.93
2023-08-17T07:25:10.582Z,5.85
2023-08-17T07:27:37.700Z,5.60
2023-08-17T07:30:04.920Z,5.43
2023-08-17T07:32:32.170Z,5.55
2023-08-17T07:34:59.007Z,6.68
2023-08-17T07:37:32.666Z,5.28
2023-08-17T07:39:59.780Z,5.03
2023-08-17T07:42:27.609Z,4.97
2023-08-17T07:44:57.407Z,4.05
2023-08-17T07:47:24.227Z,3.28
2023-08-17T07:49:51.166Z,3.13
2023-08-17T07:52:18.180Z,4.03
2023-08-17T07:54:47.355Z,3.10
2023-08-17T07:57:14.460Z,3.00
2023-08-17T07:59:41.641Z,3.40
2023-08-17T08:02:08.729Z,3.30
2023-08-17T08:04:35.641Z,3.58
2023-08-17T08:07:03.125Z,4.05
2023-08-17T08:09:30.044Z,3.72
2023-08-17T08:11:56.934Z,4.25
2023-08-17T08:14:23.833Z,4.15
2023-08-17T08:16:50.977Z,3.25
2023-08-17T08:19:17.938Z,3.30
2023-08-17T08:21:45.098Z,3.15
2023-08-17T08:24:22.176Z,2.58
2023-08-17T08:26:58.042Z,2.80
2023-08-17T08:29:24.981Z,3.03
2023-08-17T08:31:51.812Z,3.13
2023-08-17T08:34:18.786Z,3.28
2023-08-17T08:36:45.870Z,3.05
2023-08-17T08:39:13.922Z,2.92
2023-08-17T08:41:40.976Z,2.88
2023-08-17T08:44:08.026Z,2.78
2023-08-17T08:46:36.950Z,2.70
2023-08-17T08:49:06.934Z,2.70
2023-08-17T08:51:37.322Z,2.67
2023-08-17T08:54:06.740Z,2.30
2023-08-17T08:56:34.702Z,2.63
2023-08-17T08:59:04.396Z,2.42
2023-08-17T09:01:35.350Z,2.25
2023-08-17T09:04:04.281Z,2.35
2023-08-17T09:06:32.166Z,1.98
2023-08-17T09:09:00.894Z,2.40
2023-08-17T09:11:28.189Z,2.17
2023-08-17T09:13:55.772Z,1.98
2023-08-17T09:16:25.502Z,2.45
2023-08-17T09:18:54.437Z,2.25
2023-08-17T09:21:25.773Z,2.17
2023-08-17T09:24:00.130Z,2.55
2023-08-17T09:26:33.502Z,2.28
2023-08-17T09:29:01.462Z,2.53
2023-08-17T09:31:33.168Z,2.88
2023-08-17T09:34:00.108Z,2.80
2023-08-17T09:36:27.410Z,2.40
2023-08-17T09:38:54.399Z,2.60
2023-08-17T09:43:56.422Z,2.45
2023-08-17T09:46:23.764Z,2.50
2023-08-17T09:48:51.054Z,2.30
2023-08-17T09:51:18.756Z,2.55
2023-08-17T09:53:45.701Z,2.60
2023-08-17T09:58:43.662Z,1.92
2023-08-17T10:01:11.867Z,2.17
2023-08-17T10:03:43.673Z,2.28
2023-08-17T10:06:13.977Z,1.92
2023-08-17T10:08:46.174Z,2.17
2023-08-17T10:11:16.246Z,2.00
2023-08-17T10:14:11.818Z,1.73
2023-08-17T10:16:47.135Z,2.30
2023-08-17T10:19:20.713Z,2.10
2023-08-17T10:22:02.997Z,2.35
2023-08-17T10:24:31.862Z,2.28
2023-08-17T10:26:59.328Z,2.35
2023-08-17T10:29:27.176Z,2.28
2023-08-17T10:31:54.324Z,2.40
2023-08-17T10:34:21.533Z,2.60
2023-08-17T10:36:51.093Z,2.50
2023-08-17T10:39:29.991Z,2.13
2023-08-17T10:41:59.788Z,2.20
2023-08-17T10:44:48.465Z,2.85
2023-08-17T10:47:35.136Z,2.42
2023-08-17T10:50:23.706Z,2.47
2023-08-17T10:52:52.120Z,2.67
2023-08-17T10:55:35.940Z,2.42
2023-08-17T10:58:03.201Z,2.40
2023-08-17T11:00:40.166Z,2.40
2023-08-17T11:03:10.005Z,2.42
2023-08-17T11:05:55.175Z,2.60
2023-08-17T11:08:42.694Z,3.13
2023-08-17T11:11:14.838Z,3.25
2023-08-17T11:13:44.721Z,2.25
2023-08-17T11:16:18.004Z,3.00
2023-08-17T11:18:46.752Z,2.70
2023-08-17T11:23:47.425Z,3.17
2023-08-17T11:26:17.677Z,3.55
2023-08-17T11:28:46.006Z,2.92
2023-08-17T11:31:17.153Z,2.88
2023-08-17T11:33:45.034Z,3.17
2023-08-17T11:36:13.957Z,3.35
2023-08-17T11:38:43.393Z,3.45
2023-08-17T11:43:45.969Z,2.60
2023-08-17T11:46:14.084Z,2.80
2023-08-17T11:48:41.392Z,3.08
2023-08-17T11:51:08.581Z,2.80
2023-08-17T11:53:36.582Z,2.60
2023-08-17T11:56:08.113Z,2.88
2023-08-17T11:58:44.212Z,2.20
2023-08-17T12:01:12.704Z,2.30
2023-08-17T12:03:42.663Z,2.40
2023-08-17T12:06:11.528Z,2.20
2023-08-17T12:08:38.670Z,2.40
2023-08-17T12:11:05.981Z,2.38
2023-08-17T12:13:36.403Z,2.83
2023-08-17T12:16:04.698Z,3.28
2023-08-17T12:18:35.488Z,3.83
2023-08-17T12:21:02.983Z,2.75
2023-08-17T12:23:30.097Z,2.55
2023-08-17T12:25:58.344Z,2.90
2023-08-17T12:28:25.770Z,2.70
2023-08-17T12:31:01.936Z,2.50
2023-08-17T12:33:29.511Z,2.97
2023-08-17T12:35:57.021Z,2.78
2023-08-17T12:38:26.357Z,2.33
2023-08-17T12:40:54.440Z,2.13
2023-08-17T12:43:21.497Z,2.78
2023-08-17T12:45:48.723Z,2.58
2023-08-17T12:48:16.287Z,2.58
2023-08-17T12:50:44.081Z,2.30
2023-08-17T12:53:11.998Z,2.90
2023-08-17T12:55:39.284Z,2.53
2023-08-17T12:58:08.828Z,3.10
2023-08-17T13:00:35.897Z,2.72
2023-08-17T13:03:03.018Z,3.47
2023-08-17T13:05:30.222Z,3.42
2023-08-17T13:07:57.256Z,2.97
2023-08-17T13:10:24.321Z,3.28
2023-08-17T13:12:55.908Z,2.78
2023-08-17T13:15:23.571Z,3.63
2023-08-17T13:17:50.630Z,2.95
2023-08-17T13:20:18.163Z,2.88
2023-08-17T13:22:45.235Z,2.90
2023-08-17T13:25:12.222Z,2.13
2023-08-17T13:27:39.547Z,2.10
2023-08-17T13:30:07.073Z,2.15
2023-08-17T13:32:34.063Z,2.28
2023-08-17T13:35:02.317Z,2.22
2023-08-17T13:37:29.550Z,2.45
2023-08-17T13:39:59.374Z,2.20
2023-08-17T13:42:26.709Z,2.17
2023-08-17T13:44:54.221Z,2.10
2023-08-17T13:47:21.475Z,2.10
2023-08-17T13:49:48.299Z,1.92
2023-08-17T13:52:15.197Z,2.47
2023-08-17T13:54:42.297Z,2.95
2023-08-17T13:57:09.194Z,2.40
2023-08-17T13:59:36.194Z,2.42
2023-08-17T14:02:03.848Z,2.42
2023-08-17T14:04:31.316Z,2.47
2023-08-17T14:06:58.551Z,2.83
2023-08-17T14:09:25.633Z,2.80
2023-08-17T14:11:52.608Z,3.65
2023-08-17T14:14:19.526Z,3.00
2023-08-17T14:16:46.472Z,3.30
2023-08-17T14:19:13.500Z,3.13
2023-08-17T14:21:40.506Z,3.10
2023-08-17T14:24:09.310Z,2.90
2023-08-17T14:26:36.239Z,3.60
2023-08-17T14:29:03.203Z,3.25
2023-08-17T14:31:30.215Z,2.95
2023-08-17T14:33:58.226Z,2.85
2023-08-17T14:36:25.314Z,2.83
2023-08-17T14:38:52.414Z,2.88
2023-08-17T14:41:19.237Z,2.83
2023-08-17T14:43:46.203Z,2.30
2023-08-17T14:46:15.251Z,2.60
2023-08-17T14:48:42.676Z,2.20
2023-08-17T14:51:09.827Z,2.08
2023-08-17T14:53:40.115Z,2.60
2023-08-17T14:56:07.395Z,2.60
2023-08-17T14:58:34.262Z,2.45
2023-08-17T15:01:02.144Z,2.65
2023-08-17T15:03:29.497Z,2.47
2023-08-17T15:05:56.706Z,2.50
2023-08-17T15:08:23.778Z,2.40
2023-08-17T15:10:51.824Z,2.33
2023-08-17T15:13:19.752Z,2.67
2023-08-17T15:15:47.404Z,2.38
2023-08-17T15:18:14.778Z,2.67
2023-08-17T15:20:42.091Z,2.60
2023-08-17T15:23:09.011Z,2.22
2023-08-17T15:25:35.940Z,2.38
2023-08-17T15:28:03.305Z,2.20
2023-08-17T15:30:30.956Z,2.30
2023-08-17T15:32:57.945Z,2.10
2023-08-17T15:35:25.355Z,2.20
2023-08-17T15:37:52.570Z,2.30
2023-08-17T15:40:19.468Z,2.30
2023-08-17T15:42:46.252Z,2.15
2023-08-17T15:45:13.114Z,1.98
2023-08-17T15:47:39.998Z,2.30
2023-08-17T15:50:07.353Z,3.20
2023-08-17T15:52:34.291Z,2.47
2023-08-17T15:55:01.239Z,2.38
2023-08-17T15:57:28.818Z,2.58
2023-08-17T15:59:56.176Z,2.22
2023-08-17T16:02:23.165Z,2.42
2023-08-17T16:04:50.138Z,2.92
2023-08-17T16:07:17.034Z,2.22
2023-08-17T16:09:43.973Z,2.40
2023-08-17T16:12:11.167Z,2.38
2023-08-17T16:14:38.081Z,2.25
2023-08-17T16:17:05.097Z,2.42
2023-08-17T16:19:32.182Z,2.92
2023-08-17T16:21:59.336Z,2.30
2023-08-17T16:24:26.884Z,2.38
2023-08-17T16:26:55.351Z,2.40
2023-08-17T16:29:22.400Z,2.22
2023-08-17T16:34:34.239Z,2.45
2023-08-17T16:37:01.453Z,3.05
2023-08-17T16:39:29.296Z,2.63
2023-08-17T16:41:57.469Z,2.60
2023-08-17T16:44:26.137Z,2.42
2023-08-17T16:46:54.961Z,2.42
2023-08-17T16:49:21.873Z,2.30
2023-08-17T16:51:48.926Z,2.58
2023-08-17T16:54:15.741Z,3.03
2023-08-17T16:56:44.887Z,2.92
2023-08-17T16:59:12.700Z,2.50
2023-08-17T17:01:39.892Z,2.60
2023-08-17T17:04:07.598Z,2.60
2023-08-17T17:06:34.600Z,2.65
2023-08-17T17:09:01.604Z,2.45
2023-08-17T17:11:28.486Z,2.25
2023-08-17T17:13:58.372Z,2.97
2023-08-17T17:16:26.014Z,2.53
2023-08-17T17:18:53.025Z,2.58
2023-08-17T17:21:20.041Z,2.88
2023-08-17T17:23:47.046Z,2.42
2023-08-17T17:26:14.633Z,3.00
2023-08-17T17:28:41.437Z,2.53
2023-08-17T17:31:08.535Z,2.67
2023-08-17T17:33:35.452Z,3.08
2023-08-17T17:36:02.484Z,2.47
2023-08-17T17:38:29.418Z,2.97
2023-08-17T17:40:58.395Z,3.30
2023-08-17T17:43:25.432Z,2.63
2023-08-17T17:45:53.856Z,2.40
2023-08-17T17:48:20.948Z,3.08
2023-08-17T17:50:47.948Z,2.70
2023-08-17T17:53:14.975Z,3.00
2023-08-17T17:55:42.234Z,3.10
2023-08-17T17:58:09.194Z,2.90
2023-08-17T18:00:36.418Z,2.97
2023-08-17T18:03:14.699Z,2.85
2023-08-17T18:05:46.694Z,2.63
2023-08-17T18:08:13.890Z,3.20
2023-08-17T18:10:41.960Z,2.88
2023-08-17T18:13:09.696Z,2.67
2023-08-17T18:15:37.659Z,2.70
2023-08-17T18:18:06.076Z,3.38
2023-08-17T18:20:33.160Z,3.70
2023-08-17T18:23:00.326Z,3.10
2023-08-17T18:25:28.323Z,3.35
2023-08-17T18:27:55.213Z,3.22
2023-08-17T18:30:23.320Z,3.20
2023-08-17T18:32:50.399Z,3.28
2023-08-17T18:35:17.783Z,2.97
2023-08-17T18:37:46.942Z,2.95
2023-08-17T18:40:14.251Z,3.42
2023-08-17T18:42:41.248Z,3.75
2023-08-17T18:45:08.645Z,3.67
2023-08-17T18:47:36.032Z,3.33
2023-08-17T18:50:03.439Z,3.53
2023-08-17T18:52:30.407Z,3.65
2023-08-17T18:55:01.902Z,3.47
2023-08-17T18:57:29.667Z,3.60
2023-08-17T18:59:57.769Z,3.40
2023-08-17T19:02:25.049Z,3.58
2023-08-17T19:04:52.069Z,3.20
2023-08-17T19:07:19.640Z,3.35
2023-08-17T19:09:48.089Z,3.50
2023-08-17T19:12:20.856Z,3.35
2023-08-17T19:14:47.869Z,3.30
2023-08-17T19:17:14.971Z,3.58
2023-08-17T19:19:42.191Z,3.47
2023-08-17T19:22:09.571Z,3.40
2023-08-17T19:24:36.722Z,3.40
2023-08-17T19:27:03.799Z,3.40
2023-08-17T19:29:30.888Z,3.47
2023-08-17T19:31:57.857Z,3.40
2023-08-17T19:34:24.733Z,3.45
2023-08-17T19:36:51.715Z,3.50
2023-08-17T19:39:20.149Z,3.80
2023-08-17T19:41:48.552Z,3.65
2023-08-17T19:44:15.996Z,3.40
2023-08-17T19:46:46.692Z,3.90
2023-08-17T19:49:13.583Z,3.58
2023-08-17T19:51:40.696Z,4.05
2023-08-17T19:54:08.021Z,3.75
2023-08-17T19:56:35.145Z,3.30
2023-08-17T19:59:02.684Z,3.00
2023-08-17T20:01:30.098Z,4.18
2023-08-17T20:03:57.150Z,3.65
2023-08-17T20:06:24.092Z,4.07
2023-08-17T20:08:51.197Z,3.80
2023-08-17T20:11:18.292Z,4.38
2023-08-17T20:13:45.180Z,3.72
2023-08-17T20:16:12.045Z,3.83
2023-08-17T20:18:39.552Z,3.50
2023-08-17T20:21:07.214Z,3.92
2023-08-17T20:23:34.516Z,3.72
2023-08-17T20:26:01.754Z,4.20
2023-08-17T20:28:28.649Z,3.50
2023-08-17T20:31:00.014Z,3.55
2023-08-17T20:33:27.848Z,3.80
2023-08-17T20:35:56.004Z,3.63
2023-08-17T20:38:24.187Z,3.75
2023-08-17T20:40:52.016Z,3.45
2023-08-17T20:43:19.843Z,3.67
2023-08-17T20:45:47.136Z,3.60
2023-08-17T20:48:14.106Z,3.17
2023-08-17T20:50:41.964Z,3.83
2023-08-17T20:53:09.824Z,3.53
2023-08-17T20:55:40.219Z,3.58
2023-08-17T20:58:07.851Z,3.20
2023-08-17T21:00:38.226Z,3.30
2023-08-17T21:03:06.345Z,3.80
2023-08-17T21:05:34.172Z,3.00
2023-08-17T21:08:02.678Z,3.45
2023-08-17T21:10:30.310Z,3.20
2023-08-17T21:12:58.143Z,2.83
2023-08-17T21:15:25.091Z,2.95
2023-08-17T21:17:51.985Z,3.05
2023-08-17T21:20:18.951Z,3.00
2023-08-17T21:22:52.487Z,3.58
2023-08-17T21:25:20.050Z,2.95
2023-08-17T21:27:47.752Z,2.92
2023-08-17T21:30:16.469Z,2.70
2023-08-17T21:32:43.886Z,2.83
2023-08-17T21:35:12.786Z,3.60
2023-08-17T21:37:44.335Z,3.05
2023-08-17T21:40:12.620Z,3.50
2023-08-17T21:42:39.676Z,3.42
2023-08-17T21:45:07.138Z,3.20
2023-08-17T21:47:34.060Z,3.42
2023-08-17T21:50:01.181Z,3.60
2023-08-17T21:52:28.199Z,3.70
2023-08-17T21:54:55.115Z,3.00
2023-08-17T21:57:21.959Z,3.88
2023-08-17T21:59:48.955Z,3.45
2023-08-17T22:02:16.004Z,3.55
2023-08-17T22:04:42.947Z,3.33
2023-08-17T22:07:10.202Z,4.45
2023-08-17T22:09:37.089Z,3.15
2023-08-17T22:12:04.396Z,3.08
2023-08-17T22:14:31.370Z,3.58
2023-08-17T22:16:58.672Z,3.22
2023-08-17T22:19:25.647Z,3.22
2023-08-17T22:21:52.998Z,3.20
2023-08-17T22:24:20.117Z,3.00
2023-08-17T22:26:47.046Z,3.30
2023-08-17T22:29:14.196Z,2.85
2023-08-17T22:31:43.702Z,2.78
2023-08-17T22:34:14.097Z,3.15
2023-08-17T22:36:40.998Z,2.95
2023-08-17T22:39:07.852Z,3.35
2023-08-17T22:41:35.073Z,2.90
2023-08-17T22:44:02.487Z,2.75
2023-08-17T22:46:29.556Z,2.90
2023-08-17T22:48:56.514Z,4.13
2023-08-17T22:51:24.679Z,3.20
2023-08-17T22:53:51.916Z,3.25
2023-08-17T22:56:18.855Z,3.13
2023-08-17T22:58:45.900Z,3.40
2023-08-17T23:01:12.894Z,2.90
2023-08-17T23:03:39.835Z,3.50
2023-08-17T23:06:06.867Z,3.50
2023-08-17T23:08:35.527Z,3.22
2023-08-17T23:11:02.873Z,3.20
2023-08-17T23:13:30.169Z,3.45
2023-08-17T23:15:57.186Z,2.90
2023-08-17T23:18:24.217Z,3.35
2023-08-17T23:20:51.249Z,3.03
2023-08-17T23:23:19.385Z,3.13
2023-08-17T23:25:46.464Z,3.03
2023-08-17T23:28:13.879Z,3.13
2023-08-17T23:30:41.378Z,3.35
2023-08-17T23:33:10.154Z,3.78
2023-08-17T23:35:39.780Z,3.72
2023-08-17T23:38:08.008Z,3.78
2023-08-17T23:40:35.082Z,3.67
2023-08-17T23:43:02.018Z,3.40
2023-08-17T23:45:28.919Z,3.63
2023-08-17T23:47:56.213Z,2.83
2023-08-17T23:50:23.272Z,3.28
2023-08-17T23:52:50.203Z,3.30
2023-08-17T23:55:17.599Z,3.08
2023-08-17T23:57:44.622Z,2.67
